• pl
  • eng

Awiacja
TAF FT 07:03 25.03.2017
  • WIND
  • SIGNIFICANT EURO
  • SIGNIFICANT
  • SIGMET
  • AIRMET
  • TAF FC
  • TAF FT
  • METAR GG30
  • METAR GG00


TAF EPBY 250530Z 2506/2606 29010KT CAVOK
TEMPO 2509/2518 30015G25KT
PROB40 2512/2516 -RA BKN014
BECMG 2520/2522 VRB02KT 4000 BR=

TAF EPGD 250530Z 2506/2606 26010KT CAVOK
BECMG 2508/2510 31014KT
TEMPO 2509/2518 31015G28KT -RA BKN012
BECMG 2518/2521 32004KT
PROB40 2600/2606 3000 BR=

TAF EPKK 250530Z 2506/2606 VRB02KT 0100 FZFG VV000
TEMPO 2506/2508 4000 BR NSC
BECMG 2506/2509 26012KT CAVOK
BECMG 2600/2603 02010KT BKN014=

TAF AMD EPKT 250600Z 2506/2606 VRB01KT 4500 BR NSC
PROB40 TEMPO 2506/2507 1200 BR
BECMG 2507/2510 29012KT CAVOK
BECMG 2600/2603 01010KT BKN013=

TAF EPLL 250530Z 2506/2606 27002KT 3000 BR NSC
BECMG 2506/2508 CAVOK
BECMG 2508/2510 27012KT
PROB40 TEMPO 2510/2518 28015G25KT
BECMG 2517/2520 34012KT=

TAF EPMO 250530Z 2506/2606 27004KT CAVOK
BECMG 2508/2511 27014KT
PROB40 TEMPO 2511/2517 28015G25KT
BECMG 2517/2519 33012KT
TEMPO 2523/2606 BKN012=

TAF EPPO 250530Z 2506/2606 28002KT CAVOK
BECMG 2507/2509 28012KT
PROB30 TEMPO 2510/2516 30015G25KT
BECMG 2517/2519 36006KT
PROB40 2600/2606 1300 BR=

TAF EPRZ 250530Z 2506/2606 VRB02KT 0100 FZFG NSC
TEMPO 2506/2508 4000 BR NSC
PROB30 2506/2508 OVC001
BECMG 2507/2510 28012G28KT CAVOK
BECMG 2521/2524 BKN008=

TAF EPSC 250530Z 2506/2606 25004KT CAVOK
BECMG 2507/2509 31012KT
TEMPO 2509/2515 31015G25KT
PROB40 2510/2515 BKN012
BECMG 2516/2519 3000 BR
PROB40 2600/2606 0300 FG BKN003=

TAF EPWA 250530Z 2506/2606 27003KT CAVOK
BECMG 2508/2511 27014KT
PROB40 TEMPO 2511/2517 28015G25KT
BECMG 2517/2519 33012KT
TEMPO 2523/2606 BKN012=

TAF EPWR 250530Z 2506/2606 28002KT CAVOK
BECMG 2508/2510 28012KT
BECMG 2518/2521 36006KT
PROB30 2603/2606 2500 BR=
Awiacja.imgw.pl jest pogodowym serwisem informacyjnym
Instytutu Meteorologii i Gospodarki Wodnej Państwowego Instytutu Badawczego.
Copyright IMGW PIB 2009-2011© Wszelkie prawa zastrzeżone.